Time;durP1;ratioP1;P1;durP2;ratioP2;P2;SDS_P1;SDS_P2;PMS_P1;PMS_P2;Temp;Humidity;BMP_temperature;BMP_pressure;BME280_temperature;BME280_humidity;BME280_pressure;Samples;Min_cycle;Max_cycle;Signal;HPM_P1;HPM_P2
2022/02/14 00:00:53;;;;;;;3.13;1.77;;;18.10;57.40;;;;;;4998756;28;20167;-86
2022/02/14 00:03:20;;;;;;;1.90;1.70;;;18.10;57.20;;;;;;5016103;28;20246;-85
2022/02/14 00:05:46;;;;;;;1.70;1.60;;;18.10;57.20;;;;;;4998610;28;20237;-83
2022/02/14 00:08:12;;;;;;;2.65;1.90;;;18.10;57.40;;;;;;4998704;28;20186;-85
2022/02/14 00:10:38;;;;;;;2.05;1.60;;;18.10;57.50;;;;;;5016191;28;20180;-85
2022/02/14 00:13:08;;;;;;;2.22;1.90;;;18.10;57.40;;;;;;4982236;28;20210;-85
2022/02/14 00:15:34;;;;;;;1.80;1.58;;;18.00;57.40;;;;;;4965564;28;20179;-85
2022/02/14 00:18:00;;;;;;;2.28;1.80;;;18.00;57.40;;;;;;4998444;28;20217;-86
2022/02/14 00:20:26;;;;;;;2.60;1.90;;;18.10;57.50;;;;;;4998881;28;20155;-84
2022/02/14 00:22:52;;;;;;;2.80;1.73;;;18.00;57.40;;;;;;4982184;28;20179;-86
2022/02/14 00:25:19;;;;;;;2.25;1.80;;;18.00;57.40;;;;;;4982045;28;20174;-85
2022/02/14 00:27:46;;;;;;;3.22;1.60;;;18.10;57.40;;;;;;4982047;28;20728;-85
2022/02/14 00:30:13;;;;;;;2.33;1.92;;;18.00;57.50;;;;;;5015702;28;20168;-87
2022/02/14 00:32:39;;;;;;;1.92;1.75;;;18.00;57.40;;;;;;4981783;28;20203;-86
2022/02/14 00:35:05;;;;;;;1.88;1.55;;;18.10;57.50;;;;;;5015630;28;20630;-85
2022/02/14 00:37:32;;;;;;;1.90;1.70;;;18.10;57.50;;;;;;4982771;28;20164;-85
2022/02/14 00:39:58;;;;;;;1.73;1.63;;;18.00;57.50;;;;;;4998052;28;20160;-84
2022/02/14 00:42:24;;;;;;;2.35;1.77;;;18.00;57.40;;;;;;4981920;28;20168;-85
2022/02/14 00:44:50;;;;;;;1.95;1.67;;;18.00;57.50;;;;;;4998155;28;20283;-85
2022/02/14 00:47:16;;;;;;;2.22;1.50;;;18.00;57.50;;;;;;4997814;28;20630;-84
2022/02/14 00:49:42;;;;;;;2.75;1.85;;;18.00;57.60;;;;;;5015528;28;20156;-88
2022/02/14 00:52:08;;;;;;;2.67;1.50;;;18.00;57.30;;;;;;4996742;28;20195;-85
2022/02/14 00:54:34;;;;;;;2.40;1.90;;;18.00;57.50;;;;;;4997748;28;20231;-84
2022/02/14 00:57:00;;;;;;;2.50;2.08;;;18.00;57.60;;;;;;4998012;28;20167;-84
2022/02/14 00:59:27;;;;;;;2.85;1.80;;;17.90;57.50;;;;;;5015209;28;20158;-85
2022/02/14 01:01:53;;;;;;;3.47;2.00;;;17.90;57.70;;;;;;4997677;28;20238;-85
2022/02/14 01:04:18;;;;;;;2.17;1.60;;;17.90;57.50;;;;;;4997593;28;20190;-84
2022/02/14 01:06:44;;;;;;;2.22;1.75;;;18.00;57.50;;;;;;5015170;28;20156;-85
2022/02/14 01:09:10;;;;;;;2.15;1.60;;;17.80;57.50;;;;;;4981651;28;20167;-86
2022/02/14 01:11:37;;;;;;;2.50;1.70;;;17.90;57.40;;;;;;4997517;28;20160;-84
2022/02/14 01:14:05;;;;;;;2.75;1.70;;;17.90;57.50;;;;;;4997609;28;20214;-85
2022/02/14 01:16:31;;;;;;;1.65;1.55;;;17.90;57.50;;;;;;4981632;28;20171;-84
2022/02/14 01:18:57;;;;;;;3.10;1.88;;;17.90;57.50;;;;;;4997191;28;20163;-85
2022/02/14 01:21:23;;;;;;;2.40;1.88;;;17.90;57.40;;;;;;4997467;28;20518;-86
2022/02/14 01:23:49;;;;;;;2.22;1.60;;;17.90;57.60;;;;;;4997398;28;20207;-85
2022/02/14 01:26:14;;;;;;;2.42;1.70;;;17.90;57.60;;;;;;4996777;28;20277;-86
2022/02/14 01:28:40;;;;;;;2.17;1.60;;;17.90;57.70;;;;;;4997485;28;20610;-85
2022/02/14 01:31:06;;;;;;;3.08;1.90;;;17.90;57.50;;;;;;4997103;28;20152;-85
2022/02/14 01:33:32;;;;;;;2.20;1.75;;;17.90;57.60;;;;;;4980589;28;20261;-85
2022/02/14 01:35:58;;;;;;;3.88;1.80;;;17.90;57.70;;;;;;4980705;28;20725;-85
2022/02/14 01:38:23;;;;;;;2.20;1.70;;;17.90;57.70;;;;;;4980593;28;20511;-85
2022/02/14 01:40:49;;;;;;;2.13;1.70;;;17.80;57.70;;;;;;4996928;28;20641;-85
2022/02/14 01:43:15;;;;;;;2.20;1.60;;;17.90;57.50;;;;;;4997255;28;20171;-85
2022/02/14 01:45:42;;;;;;;2.55;1.80;;;17.90;57.30;;;;;;4997008;28;20309;-84
2022/02/14 01:48:09;;;;;;;3.42;1.70;;;17.90;57.70;;;;;;4980843;28;20163;-84
2022/02/14 01:50:35;;;;;;;2.30;1.83;;;17.90;57.60;;;;;;4996713;28;20206;-85
2022/02/14 01:53:01;;;;;;;2.53;1.73;;;17.80;57.50;;;;;;4980280;28;20191;-86
2022/02/14 01:55:27;;;;;;;2.13;1.75;;;17.80;57.60;;;;;;5014657;28;20207;-85
2022/02/14 01:57:53;;;;;;;2.33;1.80;;;17.80;57.70;;;;;;5014145;28;20151;-84
2022/02/14 02:00:20;;;;;;;1.55;1.40;;;17.80;57.50;;;;;;4996714;28;20589;-85
2022/02/14 02:02:46;;;;;;;2.35;1.80;;;17.80;57.80;;;;;;4996164;28;20234;-85
2022/02/14 02:05:12;;;;;;;2.55;1.52;;;17.80;57.70;;;;;;4980713;28;20156;-85
2022/02/14 02:07:39;;;;;;;1.73;1.60;;;17.80;57.70;;;;;;4980639;28;20167;-84
2022/02/14 02:10:07;;;;;;;2.22;1.70;;;17.80;57.90;;;;;;4980267;28;20163;-85
2022/02/14 02:12:33;;;;;;;2.53;1.75;;;17.80;57.80;;;;;;4996432;28;20195;-84
2022/02/14 02:15:01;;;;;;;1.90;1.70;;;17.80;57.60;;;;;;4996351;28;20213;-85
2022/02/14 02:17:29;;;;;;;2.40;1.88;;;17.80;57.60;;;;;;4980004;28;20164;-86
2022/02/14 02:19:55;;;;;;;3.65;1.90;;;17.80;57.80;;;;;;4996126;28;20163;-85
2022/02/14 02:22:21;;;;;;;1.98;1.77;;;17.70;57.70;;;;;;4979609;28;20166;-84
2022/02/14 02:24:53;;;;;;;2.15;1.80;;;17.80;57.60;;;;;;4980020;28;20534;-86
2022/02/14 02:27:21;;;;;;;2.17;1.45;;;17.80;57.70;;;;;;4963611;28;20223;-84
2022/02/14 02:29:49;;;;;;;3.47;1.70;;;17.80;57.80;;;;;;4963559;28;20325;-85
2022/02/14 02:32:16;;;;;;;1.88;1.60;;;17.70;57.70;;;;;;4946909;28;20214;-86
2022/02/14 02:34:43;;;;;;;1.70;1.60;;;17.70;57.60;;;;;;4979126;28;20257;-87
2022/02/14 02:37:12;;;;;;;3.78;2.05;;;17.70;57.60;;;;;;4996187;28;20152;-84
2022/02/14 02:39:41;;;;;;;2.42;1.85;;;17.80;57.70;;;;;;4979387;28;20187;-85
2022/02/14 02:42:10;;;;;;;1.60;1.50;;;17.80;57.60;;;;;;4963229;28;20187;-84
2022/02/14 02:44:38;;;;;;;2.65;1.73;;;17.80;57.50;;;;;;4947105;28;20233;-85
2022/02/14 02:47:06;;;;;;;2.08;1.60;;;17.80;57.60;;;;;;4962784;28;20211;-85
2022/02/14 02:49:34;;;;;;;2.10;1.70;;;17.80;57.40;;;;;;4978931;28;20206;-85
2022/02/14 02:52:02;;;;;;;1.83;1.60;;;17.80;57.50;;;;;;4978971;28;20233;-85
2022/02/14 02:54:29;;;;;;;1.73;1.63;;;17.80;57.60;;;;;;4963004;28;20180;-84
2022/02/14 02:56:55;;;;;;;2.80;2.20;;;17.80;57.50;;;;;;4946602;28;20565;-85
2022/02/14 02:59:22;;;;;;;1.65;1.55;;;17.80;57.60;;;;;;4979910;28;20171;-85
2022/02/14 03:01:49;;;;;;;2.63;2.03;;;17.80;57.60;;;;;;4978981;28;20183;-84
2022/02/14 03:04:17;;;;;;;1.80;1.67;;;17.80;57.60;;;;;;4978615;28;20642;-85
2022/02/14 03:06:44;;;;;;;1.63;1.52;;;17.80;57.50;;;;;;4995919;28;20163;-85
2022/02/14 03:09:10;;;;;;;2.00;1.63;;;17.80;57.50;;;;;;4980073;28;20170;-85
2022/02/14 03:11:37;;;;;;;1.80;1.67;;;17.70;57.60;;;;;;5013182;28;20526;-84
2022/02/14 03:14:03;;;;;;;1.80;1.60;;;17.80;57.30;;;;;;4979294;28;20210;-85
2022/02/14 03:16:29;;;;;;;1.98;1.60;;;17.80;57.50;;;;;;4999125;28;20503;-84
2022/02/14 03:18:55;;;;;;;1.77;1.60;;;17.80;57.40;;;;;;4983226;28;20160;-85
2022/02/14 03:21:21;;;;;;;2.83;1.90;;;17.80;57.70;;;;;;4983352;28;20737;-85
2022/02/14 03:23:47;;;;;;;2.33;1.70;;;17.70;57.60;;;;;;4983127;28;20172;-85
2022/02/14 03:26:14;;;;;;;1.67;1.58;;;17.70;57.80;;;;;;4999258;28;20211;-85
2022/02/14 03:28:40;;;;;;;2.08;1.80;;;17.70;58.50;;;;;;4983066;28;20262;-85
2022/02/14 03:31:05;;;;;;;2.30;2.05;;;17.70;58.00;;;;;;4982989;28;20704;-85
2022/02/14 03:33:31;;;;;;;2.00;1.80;;;17.70;57.90;;;;;;4982949;28;20202;-84
2022/02/14 03:35:57;;;;;;;3.17;1.70;;;17.70;58.00;;;;;;4999146;28;20179;-86
2022/02/14 03:38:24;;;;;;;2.47;1.85;;;17.70;57.80;;;;;;5016703;28;20158;-86
2022/02/14 03:40:50;;;;;;;2.05;1.85;;;17.70;57.70;;;;;;4999141;28;20626;-86
2022/02/14 03:43:20;;;;;;;2.65;1.77;;;17.70;57.80;;;;;;4999567;28;20164;-85
2022/02/14 03:45:46;;;;;;;1.63;1.42;;;17.70;57.40;;;;;;4965999;28;20183;-84
2022/02/14 03:48:12;;;;;;;2.00;1.70;;;17.70;57.70;;;;;;4983057;28;20259;-85
2022/02/14 03:50:38;;;;;;;2.58;2.03;;;17.70;57.80;;;;;;4999275;28;20698;-84
2022/02/14 03:53:04;;;;;;;2.17;1.77;;;17.70;57.60;;;;;;4983038;28;20273;-86
2022/02/14 03:55:30;;;;;;;2.00;1.50;;;17.70;57.90;;;;;;4999099;28;20191;-85
2022/02/14 03:57:56;;;;;;;1.95;1.73;;;17.70;58.00;;;;;;4982559;28;20519;-85
2022/02/14 04:00:22;;;;;;;1.63;1.50;;;17.70;57.80;;;;;;4998733;28;20221;-84
2022/02/14 04:02:49;;;;;;;2.72;1.85;;;17.70;57.70;;;;;;4999133;28;20258;-85
2022/02/14 04:05:16;;;;;;;2.10;1.90;;;17.70;57.90;;;;;;4982308;28;20167;-85
2022/02/14 04:07:43;;;;;;;3.20;1.90;;;17.70;57.60;;;;;;4998900;28;20186;-85
2022/02/14 04:10:09;;;;;;;3.83;1.90;;;17.70;58.10;;;;;;4998664;28;20217;-84
2022/02/14 04:12:35;;;;;;;1.50;1.40;;;17.60;58.00;;;;;;4998468;28;20221;-84
2022/02/14 04:15:02;;;;;;;1.92;1.73;;;17.70;57.90;;;;;;4982611;28;20168;-85
2022/02/14 04:17:27;;;;;;;2.15;1.67;;;17.70;58.00;;;;;;4998341;28;20611;-86
2022/02/14 04:19:53;;;;;;;2.30;1.70;;;17.70;58.10;;;;;;4982162;28;20174;-85
2022/02/14 04:22:19;;;;;;;3.45;1.70;;;17.60;58.00;;;;;;4998273;28;20163;-85
2022/02/14 04:24:45;;;;;;;3.58;2.03;;;17.70;58.00;;;;;;4982471;28;20523;-86
2022/02/14 04:27:11;;;;;;;2.80;1.83;;;17.70;57.80;;;;;;4982216;28;20223;-83
2022/02/14 04:29:36;;;;;;;1.92;1.73;;;17.60;57.70;;;;;;4982191;28;20193;-85
2022/02/14 04:32:02;;;;;;;2.13;1.83;;;17.70;57.80;;;;;;4998304;28;20573;-85
2022/02/14 04:34:28;;;;;;;1.80;1.70;;;17.60;58.00;;;;;;4998130;28;20210;-85
2022/02/14 04:36:54;;;;;;;3.08;1.90;;;17.60;57.90;;;;;;4998152;28;20151;-85
2022/02/14 04:39:20;;;;;;;2.15;1.70;;;17.70;57.80;;;;;;4998182;28;20161;-85
2022/02/14 04:41:46;;;;;;;2.80;1.90;;;17.60;57.80;;;;;;4998458;28;20162;-84
2022/02/14 04:44:12;;;;;;;2.00;1.65;;;17.70;57.90;;;;;;4981838;28;20164;-85
2022/02/14 04:46:38;;;;;;;2.30;1.73;;;17.70;58.10;;;;;;4997802;28;20227;-85
2022/02/14 04:49:05;;;;;;;1.80;1.50;;;17.70;57.90;;;;;;4998182;28;20225;-85
2022/02/14 04:51:31;;;;;;;2.05;1.60;;;17.60;57.90;;;;;;4981836;28;20171;-85
2022/02/14 04:53:57;;;;;;;1.92;1.73;;;17.60;58.00;;;;;;4997825;28;20198;-85
2022/02/14 04:56:23;;;;;;;1.70;1.60;;;17.60;58.10;;;;;;4981511;28;20535;-84
2022/02/14 04:58:48;;;;;;;1.70;1.60;;;17.60;58.20;;;;;;5015219;28;20237;-84
2022/02/14 05:01:15;;;;;;;2.15;1.70;;;17.60;58.10;;;;;;4997754;28;20187;-84
2022/02/14 05:03:41;;;;;;;2.28;1.90;;;17.60;58.00;;;;;;4981432;28;20253;-85
2022/02/14 05:06:07;;;;;;;2.85;1.70;;;17.60;57.80;;;;;;4981274;28;20199;-85
2022/02/14 05:08:32;;;;;;;2.15;1.63;;;17.60;57.80;;;;;;4981205;28;20172;-84
2022/02/14 05:10:58;;;;;;;2.72;1.88;;;17.60;58.00;;;;;;4997407;28;20514;-85
2022/02/14 05:13:25;;;;;;;2.22;1.85;;;17.60;58.00;;;;;;4997493;28;20198;-85
2022/02/14 05:15:52;;;;;;;1.85;1.65;;;17.70;57.90;;;;;;4996752;28;20186;-85
2022/02/14 05:18:19;;;;;;;2.80;2.00;;;17.60;58.00;;;;;;4980409;28;20187;-85
2022/02/14 05:20:46;;;;;;;1.95;1.55;;;17.60;58.00;;;;;;4996429;28;20187;-85
2022/02/14 05:23:14;;;;;;;2.72;1.80;;;17.60;58.10;;;;;;4980230;28;20190;-85
2022/02/14 05:25:43;;;;;;;2.30;1.90;;;17.60;57.80;;;;;;4980346;28;20583;-85
2022/02/14 05:28:11;;;;;;;2.50;1.90;;;17.60;57.10;;;;;;4996588;28;20191;-85
2022/02/14 05:30:38;;;;;;;2.53;1.90;;;17.70;57.00;;;;;;4996393;28;20193;-84
2022/02/14 05:33:06;;;;;;;2.03;1.83;;;17.80;56.50;;;;;;4980117;28;20222;-85
2022/02/14 05:35:32;;;;;;;1.98;1.70;;;17.90;56.80;;;;;;4948034;28;20226;-84
2022/02/14 05:37:59;;;;;;;2.53;1.90;;;17.90;56.70;;;;;;4996489;28;20186;-85
2022/02/14 05:40:27;;;;;;;3.67;1.92;;;17.90;56.20;;;;;;4979932;28;20190;-84
2022/02/14 05:42:54;;;;;;;2.88;2.08;;;18.00;56.30;;;;;;4963786;28;20187;-85
2022/02/14 05:45:20;;;;;;;2.33;1.70;;;18.00;56.40;;;;;;4963781;28;20184;-84
2022/02/14 05:47:47;;;;;;;2.60;1.80;;;18.00;56.50;;;;;;4980586;28;20190;-85
2022/02/14 05:50:14;;;;;;;4.10;1.95;;;18.00;56.20;;;;;;4979377;28;20182;-84
2022/02/14 05:52:40;;;;;;;1.73;1.60;;;18.00;56.30;;;;;;4979861;28;20357;-84
2022/02/14 05:55:08;;;;;;;2.25;1.88;;;18.00;56.40;;;;;;4947494;28;20228;-84
2022/02/14 05:57:34;;;;;;;1.85;1.75;;;18.00;56.30;;;;;;5013986;28;20242;-85
2022/02/14 06:00:00;;;;;;;1.85;1.75;;;18.00;55.90;;;;;;4996875;28;20155;-85
2022/02/14 06:02:27;;;;;;;2.08;1.88;;;18.10;55.90;;;;;;4996086;28;20182;-85
2022/02/14 06:04:53;;;;;;;2.20;2.00;;;18.10;56.00;;;;;;4980225;28;20167;-85
2022/02/14 06:07:19;;;;;;;1.83;1.70;;;18.10;55.60;;;;;;4996565;28;20514;-84
2022/02/14 06:09:45;;;;;;;2.15;1.70;;;18.10;56.70;;;;;;4980235;28;20168;-84
2022/02/14 06:12:11;;;;;;;2.63;2.00;;;18.00;56.00;;;;;;4996159;28;20214;-84
2022/02/14 06:14:38;;;;;;;2.08;1.88;;;18.10;56.00;;;;;;4996136;28;20634;-84
2022/02/14 06:17:06;;;;;;;2.05;1.85;;;18.10;55.90;;;;;;4995601;28;20238;-85
2022/02/14 06:19:33;;;;;;;1.98;1.80;;;18.10;56.00;;;;;;4947245;28;20658;-85
2022/02/14 06:22:00;;;;;;;2.63;1.95;;;18.10;55.90;;;;;;4995357;28;20209;-85
2022/02/14 06:24:27;;;;;;;1.88;1.67;;;18.10;55.90;;;;;;4995255;28;20662;-85
2022/02/14 06:26:52;;;;;;;2.63;2.10;;;18.20;55.70;;;;;;4963187;28;20296;-85
2022/02/14 06:29:19;;;;;;;2.22;1.98;;;18.10;56.10;;;;;;4996423;28;20167;-85
2022/02/14 06:31:45;;;;;;;2.33;1.90;;;18.10;55.90;;;;;;4962932;28;20175;-85
2022/02/14 06:34:11;;;;;;;2.08;1.88;;;18.10;55.60;;;;;;4962971;28;20694;-85
2022/02/14 06:36:38;;;;;;;2.08;1.80;;;18.10;55.50;;;;;;4980179;28;20186;-84
2022/02/14 06:39:04;;;;;;;2.38;2.08;;;18.20;55.70;;;;;;5013553;28;20162;-84
2022/02/14 06:41:31;;;;;;;2.33;1.80;;;18.20;55.50;;;;;;4995955;28;20147;-85
2022/02/14 06:43:57;;;;;;;1.88;1.65;;;18.10;55.70;;;;;;4979729;28;20182;-85
2022/02/14 06:46:23;;;;;;;2.28;1.77;;;18.20;55.80;;;;;;4996630;28;20172;-85
2022/02/14 06:48:49;;;;;;;2.05;1.85;;;18.20;55.70;;;;;;4979560;28;20175;-84
2022/02/14 06:51:17;;;;;;;2.13;1.92;;;18.20;55.50;;;;;;4995199;28;20634;-84
2022/02/14 06:53:45;;;;;;;2.38;1.90;;;18.20;55.40;;;;;;4980366;28;20537;-86
2022/02/14 06:56:12;;;;;;;2.08;1.85;;;18.20;55.60;;;;;;4963070;28;20653;-84
2022/02/14 06:58:40;;;;;;;2.30;2.03;;;18.20;55.20;;;;;;4979635;28;20176;-85
2022/02/14 07:01:08;;;;;;;1.98;1.80;;;18.30;54.80;;;;;;4995178;28;20549;-85
2022/02/14 07:03:35;;;;;;;2.08;1.88;;;18.30;55.00;;;;;;4978496;28;20665;-85
2022/02/14 07:06:03;;;;;;;2.10;1.80;;;18.30;55.10;;;;;;4963377;28;20167;-84
2022/02/14 07:08:31;;;;;;;2.03;1.83;;;18.30;55.30;;;;;;4962639;28;20179;-87
2022/02/14 07:10:59;;;;;;;2.17;1.98;;;18.30;55.00;;;;;;4962410;28;20241;-85
2022/02/14 07:13:26;;;;;;;2.40;1.92;;;18.20;55.00;;;;;;4962931;28;20258;-86
2022/02/14 07:15:53;;;;;;;2.28;1.85;;;18.30;54.80;;;;;;4963174;28;20179;-87
2022/02/14 07:18:19;;;;;;;2.67;2.03;;;18.20;55.30;;;;;;4978731;28;20179;-86
2022/02/14 07:20:45;;;;;;;2.03;1.83;;;18.30;54.80;;;;;;4980019;28;20214;-86
2022/02/14 07:23:10;;;;;;;2.40;2.00;;;18.30;54.80;;;;;;4963431;28;20171;-88
2022/02/14 07:25:36;;;;;;;2.15;1.85;;;18.30;55.00;;;;;;4968935;28;20168;-88
2022/02/14 07:28:02;;;;;;;2.33;2.00;;;18.20;54.90;;;;;;4976390;28;20401;-87
2022/02/14 07:30:27;;;;;;;2.15;1.90;;;18.30;54.80;;;;;;4977918;28;20161;-87
2022/02/14 07:32:53;;;;;;;3.72;1.88;;;18.30;54.60;;;;;;4969529;28;20661;-88
2022/02/14 07:35:19;;;;;;;2.97;2.25;;;18.30;55.00;;;;;;4997121;28;20203;-88
2022/02/14 07:37:45;;;;;;;3.05;2.00;;;18.30;54.60;;;;;;4982395;28;20785;-90
2022/02/14 07:40:13;;;;;;;2.67;1.95;;;18.30;54.80;;;;;;4954392;28;20241;-89
2022/02/14 07:42:39;;;;;;;4.07;2.13;;;18.40;55.10;;;;;;4924687;28;20735;-87
2022/02/14 07:45:06;;;;;;;4.18;1.80;;;18.30;55.10;;;;;;4937962;29;20283;-86
2022/02/14 07:47:32;;;;;;;2.20;1.75;;;18.30;55.30;;;;;;4958789;28;21102;-88
2022/02/14 07:50:12;;;;;;;5.30;1.95;;;18.40;55.80;;;;;;4959910;28;20191;-87
2022/02/14 07:52:38;;;;;;;2.30;2.00;;;18.30;55.40;;;;;;4924547;29;20223;-86
2022/02/14 07:55:05;;;;;;;2.22;1.98;;;18.30;55.70;;;;;;4926699;29;20217;-86
2022/02/14 07:57:35;;;;;;;3.38;1.77;;;18.30;55.90;;;;;;4930707;29;20182;-86
2022/02/14 08:00:04;;;;;;;5.78;2.25;;;18.30;56.00;;;;;;4898410;29;20250;-84
2022/02/14 08:02:30;;;;;;;3.05;2.00;;;18.40;55.00;;;;;;4917217;29;20285;-83
2022/02/14 08:04:57;;;;;;;2.50;2.13;;;18.40;54.70;;;;;;4901851;29;20755;-86
2022/02/14 08:07:26;;;;;;;1.95;1.73;;;18.50;54.80;;;;;;4917314;29;20636;-84
2022/02/14 08:09:51;;;;;;;2.55;1.98;;;18.60;54.70;;;;;;4917978;29;20223;-84
2022/02/14 08:12:20;;;;;;;3.60;2.10;;;18.50;54.70;;;;;;4896709;29;20187;-84
2022/02/14 08:14:47;;;;;;;3.80;1.95;;;18.60;54.30;;;;;;4917823;29;20722;-85
2022/02/14 08:17:12;;;;;;;2.97;2.03;;;18.60;55.10;;;;;;4904097;29;20188;-83
2022/02/14 08:19:42;;;;;;;3.08;1.90;;;18.50;55.20;;;;;;4934754;29;20255;-83
2022/02/14 08:22:07;;;;;;;2.97;1.90;;;18.50;55.10;;;;;;4935314;29;20187;-84
2022/02/14 08:24:34;;;;;;;2.92;2.00;;;18.50;54.90;;;;;;4919994;29;20202;-84
2022/02/14 08:27:00;;;;;;;1.98;1.70;;;18.50;55.00;;;;;;4933591;29;20745;-84
2022/02/14 08:29:29;;;;;;;2.40;1.90;;;18.50;55.20;;;;;;4943803;29;20260;-84
2022/02/14 08:31:55;;;;;;;2.42;2.00;;;18.50;55.00;;;;;;4913908;28;20659;-85
2022/02/14 08:34:23;;;;;;;2.22;1.75;;;18.50;54.80;;;;;;4940575;29;20209;-84
2022/02/14 08:36:54;;;;;;;2.85;2.10;;;18.60;54.90;;;;;;4891932;29;20193;-84
2022/02/14 08:39:19;;;;;;;3.67;2.00;;;18.60;54.80;;;;;;4925547;29;20193;-84
2022/02/14 08:41:47;;;;;;;2.33;1.98;;;18.60;55.00;;;;;;4943343;29;20177;-84
2022/02/14 08:44:17;;;;;;;3.05;1.80;;;18.60;54.80;;;;;;4958011;29;20284;-84
2022/02/14 08:46:50;;;;;;;3.65;2.00;;;18.60;55.10;;;;;;4944715;29;20193;-86
2022/02/14 08:49:15;;;;;;;2.63;2.10;;;18.60;55.30;;;;;;4913619;29;20185;-84
2022/02/14 08:51:59;;;;;;;3.65;1.85;;;18.60;55.20;;;;;;4945243;29;20193;-84
2022/02/14 08:54:32;;;;;;;3.17;1.98;;;18.60;54.80;;;;;;4914284;29;20217;-84
2022/02/14 08:57:00;;;;;;;4.50;2.00;;;18.60;55.50;;;;;;4969218;28;20729;-85
2022/02/14 08:59:31;;;;;;;5.55;1.98;;;18.70;55.50;;;;;;4987838;28;20160;-84
2022/02/14 09:02:01;;;;;;;2.25;2.00;;;18.60;55.50;;;;;;4970161;28;20202;-84
2022/02/14 09:04:31;;;;;;;6.00;1.80;;;18.60;55.40;;;;;;4971178;28;20199;-84
2022/02/14 09:06:59;;;;;;;2.92;2.08;;;18.60;55.20;;;;;;4970803;28;20213;-85
2022/02/14 09:09:27;;;;;;;3.78;2.05;;;18.50;55.10;;;;;;4987176;28;20187;-85
2022/02/14 09:12:34;;;;;;;4.53;1.98;;;18.60;55.40;;;;;;4986279;28;20187;-84
2022/02/14 09:15:05;;;;;;;3.58;1.90;;;18.60;55.50;;;;;;4945561;29;20197;-84
2022/02/14 09:17:33;;;;;;;3.67;2.00;;;18.60;55.30;;;;;;4901574;29;20284;-86
2022/02/14 09:20:01;;;;;;;4.15;2.20;;;18.60;55.30;;;;;;4915537;29;20256;-85
2022/02/14 09:22:30;;;;;;;4.13;1.90;;;18.70;55.50;;;;;;4927844;29;20189;-85
2022/02/14 09:24:58;;;;;;;2.92;2.00;;;18.70;55.50;;;;;;4909786;29;20185;-85
2022/02/14 09:27:26;;;;;;;7.75;2.55;;;18.70;55.30;;;;;;4924473;29;20233;-84
2022/02/14 09:29:54;;;;;;;3.88;2.15;;;18.70;55.10;;;;;;4908448;29;20192;-84
2022/02/14 09:32:25;;;;;;;4.80;2.15;;;18.70;55.00;;;;;;4910209;29;20185;-84
2022/02/14 09:34:58;;;;;;;5.15;2.28;;;18.80;54.10;;;;;;4896568;29;20267;-84
2022/02/14 09:37:25;;;;;;;7.15;2.63;;;18.70;55.20;;;;;;4910994;29;20241;-84
2022/02/14 09:39:54;;;;;;;6.22;2.70;;;18.70;55.10;;;;;;4924692;29;20490;-84
2022/02/14 09:42:25;;;;;;;2.42;2.13;;;18.80;55.00;;;;;;4924153;29;20280;-85
2022/02/14 09:44:54;;;;;;;4.80;2.38;;;18.80;54.80;;;;;;4909930;29;20186;-85
2022/02/14 09:47:26;;;;;;;4.75;2.40;;;18.80;55.80;;;;;;4909482;29;20181;-83
2022/02/14 09:49:56;;;;;;;6.10;2.20;;;18.80;54.90;;;;;;4909582;28;20618;-84
2022/02/14 09:52:25;;;;;;;4.13;2.20;;;18.80;55.40;;;;;;4965875;28;20286;-84
2022/02/14 09:54:51;;;;;;;5.93;2.40;;;18.90;55.80;;;;;;4981472;28;20236;-85
2022/02/14 09:57:18;;;;;;;6.47;2.70;;;18.90;55.70;;;;;;4982377;28;20217;-84
2022/02/14 09:59:44;;;;;;;3.90;2.30;;;18.90;55.40;;;;;;4999185;28;20708;-84
2022/02/14 10:02:35;;;;;;;4.70;2.28;;;18.90;55.40;;;;;;5002818;28;20546;-85
2022/02/14 10:05:06;;;;;;;4.97;2.40;;;18.80;55.90;;;;;;4987381;28;20350;-83
2022/02/14 10:07:44;;;;;;;3.95;2.40;;;18.80;56.10;;;;;;5002415;28;20156;-83
2022/02/14 10:10:16;;;;;;;3.72;2.13;;;18.80;56.00;;;;;;4970289;28;20270;-82
2022/02/14 10:12:48;;;;;;;4.13;2.17;;;18.80;56.50;;;;;;4953216;28;20214;-83
2022/02/14 10:15:18;;;;;;;2.95;2.42;;;18.80;56.30;;;;;;4951971;28;20183;-84
2022/02/14 10:17:46;;;;;;;4.28;2.33;;;18.80;55.70;;;;;;4970518;28;20194;-85
2022/02/14 10:20:19;;;;;;;3.75;2.00;;;18.80;55.70;;;;;;4964677;28;20279;-83
2022/02/14 10:23:08;;;;;;;2.40;1.98;;;18.90;56.30;;;;;;4947455;28;20235;-85
2022/02/14 10:25:38;;;;;;;4.72;2.28;;;18.80;55.80;;;;;;4964881;28;20271;-84
2022/02/14 10:28:29;;;;;;;2.88;2.20;;;18.80;55.80;;;;;;4937273;29;20330;-83
2022/02/14 10:31:04;;;;;;;2.90;2.10;;;18.90;55.90;;;;;;4925225;29;20232;-84
2022/02/14 10:33:46;;;;;;;3.53;2.25;;;18.80;56.10;;;;;;4923627;29;20205;-83
2022/02/14 10:36:12;;;;;;;6.07;2.47;;;18.90;56.00;;;;;;4924728;28;22095;-83
2022/02/14 10:38:38;;;;;;;2.88;2.15;;;18.90;55.90;;;;;;4940958;28;20225;-83
2022/02/14 10:41:12;;;;;;;3.53;2.25;;;19.00;55.70;;;;;;4956273;28;20208;-83
2022/02/14 10:43:37;;;;;;;3.22;2.40;;;18.90;55.80;;;;;;4922094;29;20347;-82
2022/02/14 10:46:03;;;;;;;4.70;2.38;;;19.00;55.20;;;;;;4938050;29;20187;-82
2022/02/14 10:48:40;;;;;;;5.82;2.00;;;19.00;55.30;;;;;;4953117;29;20169;-83
2022/02/14 10:51:07;;;;;;;3.22;2.10;;;19.00;55.30;;;;;;4919874;28;20226;-83
2022/02/14 10:53:44;;;;;;;3.35;2.22;;;19.00;55.50;;;;;;4931544;28;20281;-83
2022/02/14 10:56:13;;;;;;;5.63;2.20;;;19.00;55.00;;;;;;4963374;28;20253;-84
2022/02/14 10:58:39;;;;;;;3.78;2.30;;;19.00;55.00;;;;;;4979834;28;20199;-84
2022/02/14 11:01:08;;;;;;;2.25;2.00;;;19.10;55.00;;;;;;4996283;28;20162;-82
2022/02/14 11:03:35;;;;;;;3.20;2.10;;;19.10;55.40;;;;;;5014557;28;20575;-82
2022/02/14 11:06:00;;;;;;;3.17;2.08;;;19.00;55.60;;;;;;4996576;28;20165;-84
2022/02/14 11:08:27;;;;;;;3.22;2.10;;;19.10;55.40;;;;;;4995658;28;20522;-83
2022/02/14 11:10:52;;;;;;;3.00;2.00;;;19.00;55.10;;;;;;4979286;28;20166;-83
2022/02/14 11:13:19;;;;;;;4.30;2.08;;;19.10;55.20;;;;;;4978419;28;20195;-83
2022/02/14 11:15:47;;;;;;;6.00;2.20;;;19.10;55.10;;;;;;4979340;28;20163;-83
2022/02/14 11:18:16;;;;;;;4.70;2.40;;;19.10;55.30;;;;;;4995947;28;20564;-84
2022/02/14 11:20:42;;;;;;;5.65;2.20;;;19.00;55.50;;;;;;5013802;28;20159;-82
2022/02/14 11:23:10;;;;;;;3.42;2.20;;;19.00;55.60;;;;;;4995818;28;20187;-82
2022/02/14 11:25:43;;;;;;;2.78;2.05;;;19.00;55.40;;;;;;4979250;28;20163;-83
2022/02/14 11:28:25;;;;;;;3.42;2.10;;;18.90;55.30;;;;;;4979154;28;20585;-83
2022/02/14 11:31:07;;;;;;;4.80;2.35;;;19.00;55.40;;;;;;4978824;28;20167;-83
2022/02/14 11:33:33;;;;;;;2.75;2.10;;;19.00;55.20;;;;;;4995428;28;20183;-81
2022/02/14 11:36:00;;;;;;;3.42;2.42;;;19.00;55.30;;;;;;4995893;28;20217;-81
2022/02/14 11:38:47;;;;;;;3.70;2.00;;;18.90;55.60;;;;;;4999315;28;20159;-82
2022/02/14 11:41:43;;;;;;;2.53;2.00;;;19.00;55.40;;;;;;4998996;28;20158;-83
2022/02/14 11:44:20;;;;;;;3.40;2.28;;;19.00;55.90;;;;;;5016542;28;20645;-81
2022/02/14 11:47:08;;;;;;;3.78;2.00;;;18.90;55.90;;;;;;4983260;28;20166;-82
2022/02/14 11:49:42;;;;;;;4.07;2.40;;;19.00;55.80;;;;;;5002296;28;20637;-82
2022/02/14 11:52:29;;;;;;;3.83;2.20;;;18.90;56.20;;;;;;5016719;28;20155;-82
2022/02/14 11:54:56;;;;;;;3.65;2.05;;;18.90;56.20;;;;;;5016017;28;20237;-82
2022/02/14 11:57:34;;;;;;;4.22;2.50;;;18.90;56.40;;;;;;4982318;28;20163;-82
2022/02/14 12:00:18;;;;;;;3.55;2.40;;;18.80;56.20;;;;;;4982543;28;20163;-81
2022/02/14 12:03:13;;;;;;;4.38;2.28;;;18.90;55.90;;;;;;4999137;28;20206;-82
2022/02/14 12:06:01;;;;;;;5.90;2.45;;;18.90;56.00;;;;;;5016488;28;20258;-82
2022/02/14 12:08:47;;;;;;;3.15;2.08;;;18.90;55.70;;;;;;4999064;28;20163;-83
2022/02/14 12:11:13;;;;;;;4.60;2.75;;;18.90;56.10;;;;;;5016153;28;20242;-83
2022/02/14 12:13:40;;;;;;;2.92;2.30;;;18.90;55.60;;;;;;4983006;28;20658;-83
2022/02/14 12:21:40;;;;;;;3.15;2.40;;;19.00;55.30;;;;;;5000141;28;20163;-85
2022/02/14 12:24:22;;;;;;;2.88;2.25;;;19.10;55.70;;;;;;4998479;28;20627;-83
2022/02/14 12:26:51;;;;;;;2.30;2.03;;;19.00;55.50;;;;;;4998573;28;20218;-84
2022/02/14 12:29:32;;;;;;;2.70;2.25;;;18.90;55.70;;;;;;4998320;28;20167;-84
2022/02/14 12:31:58;;;;;;;4.40;2.30;;;19.00;55.70;;;;;;4984305;28;20268;-84
2022/02/14 12:34:28;;;;;;;2.92;2.10;;;19.00;55.30;;;;;;4981869;28;20211;-82
2022/02/14 12:36:56;;;;;;;3.15;2.30;;;19.00;55.60;;;;;;4998080;28;20633;-81
2022/02/14 12:39:31;;;;;;;3.50;2.45;;;19.00;55.70;;;;;;4981748;28;20168;-84
2022/02/14 12:41:58;;;;;;;2.78;2.20;;;19.00;55.30;;;;;;4998064;28;20167;-83
2022/02/14 12:44:28;;;;;;;4.22;2.20;;;18.90;55.40;;;;;;4981953;28;20178;-82
2022/02/14 12:46:54;;;;;;;2.72;2.40;;;19.00;55.60;;;;;;4997817;28;20178;-81
2022/02/14 12:49:22;;;;;;;3.05;2.20;;;19.00;54.80;;;;;;4981631;28;20618;-81
2022/02/14 12:51:49;;;;;;;3.67;2.50;;;19.10;55.40;;;;;;4980981;28;20183;-81
2022/02/14 12:54:17;;;;;;;3.05;2.38;;;19.00;54.90;;;;;;4964556;28;20223;-81
2022/02/14 12:56:44;;;;;;;4.47;2.33;;;19.10;54.80;;;;;;4965180;28;20182;-81
2022/02/14 12:59:12;;;;;;;3.25;2.22;;;19.10;55.00;;;;;;4964757;28;20269;-83